Terminal Aerodrome Forecast
Issued by NWS

Home | Current Version | Previous Version | Text Only | Print | Product List | Glossary On
Versions: 1 2 3 4 5 6 7 8 9 10 11 12 13 14 15 16 17 18 19 20 21 22 23 24 25 26 27 28 29
000
FTUS45 KBOU 172143 AAD
TAFAPA
TAF AMD
KAPA 172143Z 1722/1818 29030G48KT 6SM BLDU FEW020 SCT060
      WS020/25040KT
      TEMPO 1722/1724 2SM BLDU SCT020
     FM180000 28025G35KT P6SM FEW060 SCT140
     FM180200 26012G22KT P6SM FEW150
     FM180700 24011KT P6SM FEW200=

USA.gov is the U.S. government's official web portal to all federal, state and local government web resources and services.